Time;durP1;ratioP1;P1;durP2;ratioP2;P2;SDS_P1;SDS_P2;PMS_P1;PMS_P2;Temp;Humidity;BMP_temperature;BMP_pressure;BME280_temperature;BME280_humidity;BME280_pressure;Samples;Min_cycle;Max_cycle;Signal;HPM_P1;HPM_P2
2022/03/21 00:00:35;;;;;;;14.27;7.27;;;7.00;41.20;;;;;;5035345;28;20262;-91
2022/03/21 00:03:01;;;;;;;14.93;8.07;;;7.00;40.90;;;;;;5018183;28;20604;-92
2022/03/21 00:05:29;;;;;;;9.73;7.37;;;7.00;41.10;;;;;;5017647;28;20164;-91
2022/03/21 00:07:55;;;;;;;11.00;7.37;;;7.00;41.10;;;;;;5035596;28;20168;-91
2022/03/21 00:10:21;;;;;;;10.67;7.30;;;6.90;41.40;;;;;;5035307;28;20188;-89
2022/03/21 00:12:46;;;;;;;11.40;8.30;;;6.90;41.50;;;;;;5017397;28;20180;-89
2022/03/21 00:15:12;;;;;;;13.27;7.63;;;6.80;41.80;;;;;;5017374;28;20275;-89
2022/03/21 00:17:40;;;;;;;9.37;6.77;;;6.80;41.40;;;;;;5017334;28;20187;-89
2022/03/21 00:20:10;;;;;;;12.33;8.40;;;6.90;41.40;;;;;;5034908;28;20196;-90
2022/03/21 00:22:37;;;;;;;10.20;7.23;;;6.80;41.90;;;;;;5035166;28;20231;-91
2022/03/21 00:25:06;;;;;;;12.70;7.87;;;6.80;41.40;;;;;;5018045;28;20169;-90
2022/03/21 00:27:33;;;;;;;11.43;7.63;;;6.80;41.70;;;;;;5017286;28;20177;-91
2022/03/21 00:29:59;;;;;;;10.97;7.37;;;6.80;42.00;;;;;;5034887;28;20181;-91
2022/03/21 00:32:25;;;;;;;9.23;7.23;;;6.70;42.00;;;;;;5017024;28;20547;-91
2022/03/21 00:34:50;;;;;;;11.83;7.80;;;6.70;42.40;;;;;;5018019;28;20184;-91
2022/03/21 00:37:16;;;;;;;14.63;7.67;;;6.60;42.40;;;;;;5017676;28;20177;-91
2022/03/21 00:39:42;;;;;;;13.23;8.57;;;6.60;42.40;;;;;;5017612;28;20204;-91
2022/03/21 00:42:10;;;;;;;17.97;8.37;;;6.50;42.50;;;;;;5017029;28;20202;-91
2022/03/21 00:44:35;;;;;;;12.13;8.23;;;6.50;42.70;;;;;;5016937;28;20183;-91
2022/03/21 00:47:04;;;;;;;11.87;8.13;;;6.50;42.80;;;;;;5017082;28;20176;-91
2022/03/21 00:49:30;;;;;;;11.03;7.90;;;6.40;43.20;;;;;;5017475;28;20689;-91
2022/03/21 00:51:55;;;;;;;10.07;7.97;;;6.40;43.40;;;;;;5016576;28;20224;-91
2022/03/21 00:54:21;;;;;;;12.47;7.93;;;6.40;43.20;;;;;;5017195;28;20176;-91
2022/03/21 00:56:46;;;;;;;12.37;8.47;;;6.30;43.40;;;;;;5034437;28;20171;-91
2022/03/21 00:59:12;;;;;;;13.43;7.73;;;6.30;43.80;;;;;;5034535;28;20164;-92
2022/03/21 01:01:38;;;;;;;12.30;8.03;;;6.30;44.00;;;;;;5016506;28;20590;-91
2022/03/21 01:04:04;;;;;;;13.97;8.03;;;6.20;43.90;;;;;;5016895;28;20194;-91
2022/03/21 01:06:29;;;;;;;19.57;8.60;;;6.30;44.10;;;;;;5034345;28;20175;-91
2022/03/21 01:08:55;;;;;;;14.87;8.23;;;6.20;44.20;;;;;;5016460;28;20176;-92
2022/03/21 01:11:22;;;;;;;18.83;8.13;;;6.10;44.70;;;;;;5034699;28;20195;-92
2022/03/21 01:13:48;;;;;;;15.70;9.20;;;6.20;44.40;;;;;;5017399;28;20241;-92
2022/03/21 01:16:15;;;;;;;14.80;8.97;;;6.10;44.40;;;;;;5016889;28;20179;-91
2022/03/21 01:18:41;;;;;;;16.17;8.50;;;6.10;44.70;;;;;;5035218;28;20173;-92
2022/03/21 01:21:07;;;;;;;11.73;8.50;;;6.10;44.40;;;;;;5016171;28;20207;-90
2022/03/21 01:23:33;;;;;;;11.93;8.63;;;6.10;44.20;;;;;;5016436;28;20185;-91
2022/03/21 01:25:58;;;;;;;13.53;8.30;;;6.10;44.60;;;;;;5016257;28;20591;-91
2022/03/21 01:28:24;;;;;;;11.97;8.70;;;6.00;44.70;;;;;;5016498;28;20183;-91
2022/03/21 01:30:49;;;;;;;16.47;8.93;;;6.10;44.40;;;;;;5016094;28;20700;-91
2022/03/21 01:33:15;;;;;;;16.30;8.50;;;6.00;45.00;;;;;;5033668;28;20546;-90
2022/03/21 01:35:40;;;;;;;12.43;8.60;;;5.90;45.00;;;;;;5016020;28;20184;-91
2022/03/21 01:38:06;;;;;;;16.73;9.33;;;6.00;44.90;;;;;;5016258;28;20661;-91
2022/03/21 01:40:32;;;;;;;15.80;9.17;;;6.00;45.10;;;;;;5033533;28;20240;-91
2022/03/21 01:42:57;;;;;;;13.97;8.83;;;5.90;44.90;;;;;;5015985;28;20219;-91
2022/03/21 01:45:28;;;;;;;14.87;8.77;;;5.90;45.70;;;;;;5016626;28;20191;-91
2022/03/21 01:47:54;;;;;;;15.17;9.03;;;5.80;45.80;;;;;;5015948;28;20266;-90
2022/03/21 01:50:20;;;;;;;13.40;8.70;;;5.80;46.20;;;;;;5033618;28;20289;-91
2022/03/21 01:52:46;;;;;;;15.23;8.90;;;5.70;46.00;;;;;;5015962;28;20203;-91
2022/03/21 01:57:59;;;;;;;13.83;8.83;;;5.70;46.30;;;;;;5033540;28;20169;-89
2022/03/21 02:00:25;;;;;;;15.00;9.60;;;5.70;45.60;;;;;;5033070;28;20695;-89
2022/03/21 02:02:51;;;;;;;12.77;8.20;;;5.70;46.10;;;;;;5016077;28;20547;-89
2022/03/21 02:05:17;;;;;;;15.17;9.60;;;5.70;45.90;;;;;;5033046;28;20191;-88
2022/03/21 02:07:43;;;;;;;15.13;8.70;;;5.70;45.70;;;;;;5033159;28;20202;-88
2022/03/21 02:10:09;;;;;;;14.83;9.70;;;5.70;45.40;;;;;;5015356;28;20187;-88
2022/03/21 02:12:35;;;;;;;13.60;8.43;;;5.70;45.80;;;;;;5033196;28;20179;-88
2022/03/21 02:15:02;;;;;;;17.73;9.20;;;5.60;46.20;;;;;;5033117;28;20191;-89
2022/03/21 02:17:32;;;;;;;13.37;9.37;;;5.60;45.90;;;;;;5033055;28;20180;-88
2022/03/21 02:20:01;;;;;;;13.47;8.97;;;5.60;45.90;;;;;;5016825;28;20190;-88
2022/03/21 02:22:50;;;;;;;16.77;9.77;;;5.60;46.60;;;;;;5019332;28;20187;-88
2022/03/21 02:25:30;;;;;;;22.07;9.27;;;5.50;46.60;;;;;;5020073;28;20235;-88
2022/03/21 02:28:02;;;;;;;14.13;9.43;;;5.40;46.90;;;;;;5037391;28;20210;-88
2022/03/21 02:30:29;;;;;;;15.60;9.03;;;5.40;46.90;;;;;;5019811;28;20226;-87
2022/03/21 02:32:56;;;;;;;15.37;9.70;;;5.40;46.70;;;;;;5036872;28;20178;-86
2022/03/21 02:35:22;;;;;;;20.40;10.30;;;5.40;47.10;;;;;;5036869;28;20250;-86
2022/03/21 02:37:49;;;;;;;15.53;9.07;;;5.30;47.10;;;;;;5019115;28;20203;-86
2022/03/21 02:40:16;;;;;;;13.33;9.03;;;5.30;47.40;;;;;;5019112;28;20664;-87
2022/03/21 02:42:42;;;;;;;15.77;10.03;;;5.30;47.40;;;;;;5018998;28;20178;-87
2022/03/21 02:45:08;;;;;;;12.37;9.20;;;5.30;47.10;;;;;;5019504;28;20205;-87
2022/03/21 02:47:34;;;;;;;14.37;9.30;;;5.20;47.60;;;;;;5019135;28;20185;-86
2022/03/21 02:50:01;;;;;;;13.77;9.33;;;5.20;47.90;;;;;;5018986;28;20551;-86
2022/03/21 02:52:29;;;;;;;16.53;9.87;;;5.10;48.10;;;;;;5019138;28;20188;-87
2022/03/21 02:54:55;;;;;;;18.83;9.80;;;5.10;47.80;;;;;;5018665;28;20228;-86
2022/03/21 02:57:21;;;;;;;16.17;10.33;;;5.10;48.10;;;;;;5019116;28;20191;-87
2022/03/21 02:59:46;;;;;;;15.13;9.73;;;5.00;48.60;;;;;;5018684;28;20206;-86
2022/03/21 03:02:12;;;;;;;16.70;9.90;;;4.90;49.20;;;;;;5036485;28;20209;-86
2022/03/21 03:04:37;;;;;;;14.40;9.87;;;4.90;48.60;;;;;;5019026;28;20200;-86
2022/03/21 03:07:03;;;;;;;15.30;9.90;;;4.90;48.60;;;;;;5018701;28;20176;-86
2022/03/21 03:09:28;;;;;;;18.07;10.20;;;4.80;49.40;;;;;;5018708;28;20549;-86
2022/03/21 03:11:54;;;;;;;16.73;10.23;;;4.80;49.70;;;;;;5036580;28;20261;-86
2022/03/21 03:14:20;;;;;;;14.23;10.03;;;4.70;49.90;;;;;;5018384;28;20753;-86
2022/03/21 03:16:46;;;;;;;15.20;10.27;;;4.60;50.70;;;;;;5036130;28;20174;-86
2022/03/21 03:19:11;;;;;;;18.13;10.23;;;4.50;50.80;;;;;;5036334;28;20169;-86
2022/03/21 03:21:43;;;;;;;16.57;10.07;;;4.30;51.70;;;;;;5018181;28;20228;-86
2022/03/21 03:24:09;;;;;;;16.33;11.20;;;4.30;52.00;;;;;;5018233;28;20198;-86
2022/03/21 03:26:35;;;;;;;20.90;10.63;;;4.30;51.90;;;;;;5018217;28;20178;-86
2022/03/21 03:29:00;;;;;;;21.50;11.20;;;4.20;52.80;;;;;;5018233;28;20643;-86
2022/03/21 03:31:26;;;;;;;13.93;10.00;;;4.10;53.10;;;;;;5018158;28;20188;-86
2022/03/21 03:33:53;;;;;;;14.90;10.93;;;4.10;53.10;;;;;;5018006;28;20232;-86
2022/03/21 03:36:19;;;;;;;14.97;10.10;;;4.20;52.60;;;;;;5018152;28;20295;-86
2022/03/21 03:38:46;;;;;;;19.10;11.07;;;4.20;52.30;;;;;;5035804;28;20623;-86
2022/03/21 03:41:12;;;;;;;18.23;11.07;;;4.20;52.30;;;;;;5018227;28;20200;-87
2022/03/21 03:43:38;;;;;;;15.90;10.43;;;4.20;52.60;;;;;;5017876;28;20204;-86
2022/03/21 03:46:04;;;;;;;17.00;10.73;;;4.20;52.70;;;;;;5017961;28;20187;-86
2022/03/21 03:48:30;;;;;;;17.27;11.00;;;4.10;52.50;;;;;;5035523;28;20173;-86
2022/03/21 03:50:56;;;;;;;15.67;10.80;;;4.10;52.50;;;;;;5017871;28;20239;-86
2022/03/21 03:53:22;;;;;;;17.57;11.50;;;4.20;52.30;;;;;;5017460;28;20240;-86
2022/03/21 03:55:47;;;;;;;15.63;11.20;;;4.20;52.00;;;;;;5035433;28;20235;-86
2022/03/21 03:58:13;;;;;;;17.57;10.30;;;4.20;52.80;;;;;;5017507;28;20185;-86
2022/03/21 04:00:39;;;;;;;17.87;11.53;;;4.10;53.10;;;;;;5017585;28;20204;-86
2022/03/21 04:05:49;;;;;;;16.93;11.10;;;4.10;53.10;;;;;;5035580;28;20590;-86
2022/03/21 04:08:15;;;;;;;16.00;11.30;;;3.90;53.80;;;;;;5035148;28;20169;-86
2022/03/21 04:10:41;;;;;;;16.30;11.40;;;3.90;53.70;;;;;;5017628;28;20246;-86
2022/03/21 04:13:07;;;;;;;15.60;12.07;;;3.90;54.30;;;;;;5017303;28;20234;-86
2022/03/21 04:15:32;;;;;;;18.40;11.50;;;3.90;54.00;;;;;;5035041;28;20177;-86
2022/03/21 04:18:02;;;;;;;16.70;10.70;;;3.90;54.30;;;;;;5035069;28;20169;-86
2022/03/21 04:20:31;;;;;;;15.40;10.93;;;3.80;54.10;;;;;;5017311;28;20221;-86
2022/03/21 04:22:57;;;;;;;20.97;12.03;;;3.90;54.00;;;;;;5018250;28;20231;-86
2022/03/21 04:25:22;;;;;;;17.90;10.70;;;3.80;54.10;;;;;;5017661;28;20178;-86
2022/03/21 04:27:48;;;;;;;19.67;12.40;;;3.80;54.30;;;;;;5017223;28;20168;-86
2022/03/21 04:30:14;;;;;;;17.97;11.37;;;3.80;54.40;;;;;;5017171;28;20658;-86
2022/03/21 04:32:39;;;;;;;16.73;10.80;;;3.80;54.20;;;;;;5018361;28;20619;-87
2022/03/21 04:35:06;;;;;;;19.20;11.17;;;3.90;54.10;;;;;;5034750;28;20253;-86
2022/03/21 04:37:32;;;;;;;17.57;12.07;;;3.90;53.90;;;;;;5016937;28;20659;-86
2022/03/21 04:39:58;;;;;;;20.30;11.50;;;3.80;54.30;;;;;;5016807;28;20201;-86
2022/03/21 04:42:24;;;;;;;23.77;11.87;;;3.90;53.90;;;;;;5034176;28;20174;-86
2022/03/21 04:44:50;;;;;;;19.70;12.27;;;3.90;54.10;;;;;;5016824;28;20212;-86
2022/03/21 04:47:17;;;;;;;17.07;11.43;;;3.90;54.20;;;;;;5016787;28;20183;-86
2022/03/21 04:49:43;;;;;;;19.13;12.23;;;3.90;54.20;;;;;;5016871;28;20181;-86
2022/03/21 04:52:09;;;;;;;15.13;11.13;;;3.90;54.20;;;;;;5016485;28;20173;-86
2022/03/21 04:54:34;;;;;;;19.97;11.87;;;3.90;53.90;;;;;;5016592;28;20219;-86
2022/03/21 04:57:00;;;;;;;17.10;12.27;;;3.90;54.00;;;;;;5016628;28;20208;-86
2022/03/21 04:59:25;;;;;;;17.37;12.07;;;3.90;53.80;;;;;;5016526;28;20177;-86
2022/03/21 05:01:52;;;;;;;17.10;12.13;;;4.00;53.40;;;;;;5016401;28;20200;-86
2022/03/21 05:04:19;;;;;;;17.87;12.70;;;3.90;53.60;;;;;;5034018;28;20188;-86
2022/03/21 05:06:46;;;;;;;20.17;12.23;;;3.90;54.00;;;;;;5016597;28;20196;-85
2022/03/21 05:09:11;;;;;;;16.50;11.00;;;3.80;54.40;;;;;;5016228;28;20169;-86
2022/03/21 05:11:37;;;;;;;20.37;13.10;;;3.80;54.10;;;;;;5016180;28;20196;-86
2022/03/21 05:14:02;;;;;;;19.70;12.40;;;3.90;53.60;;;;;;5033856;28;20200;-86
2022/03/21 05:16:28;;;;;;;17.77;11.53;;;3.80;53.60;;;;;;5033815;28;20207;-87
2022/03/21 05:18:54;;;;;;;18.23;12.50;;;3.80;54.00;;;;;;5016019;28;20173;-86
2022/03/21 05:21:19;;;;;;;22.30;11.73;;;3.70;55.20;;;;;;5033790;28;20200;-86
2022/03/21 05:31:57;;;;;;;18.17;12.53;;;3.70;55.10;;;;;;5033979;28;20256;-87
2022/03/21 05:37:06;;;;;;;19.53;11.80;;;3.50;55.40;;;;;;5033792;28;20172;-86
2022/03/21 05:39:32;;;;;;;22.13;12.03;;;3.50;55.10;;;;;;5016644;28;20181;-86
2022/03/21 05:41:58;;;;;;;17.97;12.50;;;3.50;55.40;;;;;;5015752;28;20169;-86
2022/03/21 05:44:24;;;;;;;20.90;12.00;;;3.50;56.20;;;;;;5015641;28;20226;-86
2022/03/21 05:46:50;;;;;;;22.50;12.70;;;3.50;56.60;;;;;;5015827;28;20552;-86
2022/03/21 05:49:16;;;;;;;20.30;11.87;;;3.40;57.40;;;;;;5033629;28;20181;-86
2022/03/21 05:51:43;;;;;;;17.23;12.57;;;3.40;57.10;;;;;;5015687;28;20176;-86
2022/03/21 05:54:11;;;;;;;19.70;12.37;;;3.40;56.90;;;;;;5014786;28;20216;-86
2022/03/21 05:56:38;;;;;;;18.43;12.53;;;3.50;56.60;;;;;;5015634;28;20196;-86
2022/03/21 06:01:49;;;;;;;17.93;11.80;;;3.60;56.40;;;;;;5033336;28;20577;-86
2022/03/21 06:04:16;;;;;;;17.73;12.90;;;3.60;56.20;;;;;;5033113;28;20192;-86
2022/03/21 06:06:43;;;;;;;28.07;12.73;;;3.70;55.70;;;;;;5015509;28;20177;-87
2022/03/21 06:09:08;;;;;;;19.47;13.10;;;3.70;55.40;;;;;;5015390;28;20176;-86
2022/03/21 06:11:36;;;;;;;18.37;13.27;;;3.70;54.90;;;;;;5032991;28;20183;-86
2022/03/21 06:14:03;;;;;;;17.43;12.67;;;3.70;55.60;;;;;;5015274;28;20204;-86
2022/03/21 06:16:28;;;;;;;22.57;13.53;;;3.70;56.10;;;;;;5015434;28;20183;-86
2022/03/21 06:18:54;;;;;;;17.60;11.97;;;3.70;56.60;;;;;;5015286;28;20267;-87
2022/03/21 06:21:19;;;;;;;21.50;13.63;;;3.70;56.10;;;;;;5032925;28;20203;-86
2022/03/21 06:23:46;;;;;;;20.90;12.53;;;3.70;55.10;;;;;;5015227;28;20196;-86
2022/03/21 06:26:12;;;;;;;19.33;13.30;;;3.80;54.90;;;;;;5015240;28;20176;-86
2022/03/21 06:28:37;;;;;;;20.00;13.60;;;3.90;55.60;;;;;;5032983;28;20544;-86
2022/03/21 06:31:04;;;;;;;17.00;12.60;;;4.00;55.70;;;;;;5015264;28;20668;-86
2022/03/21 06:33:31;;;;;;;23.37;12.80;;;4.00;55.50;;;;;;5015036;28;20197;-86
2022/03/21 06:35:58;;;;;;;17.63;13.03;;;4.00;55.80;;;;;;5033260;28;20180;-86
2022/03/21 06:38:24;;;;;;;21.13;13.87;;;4.00;56.80;;;;;;5015575;28;20176;-86
2022/03/21 06:40:50;;;;;;;20.47;12.83;;;4.00;56.40;;;;;;5015428;28;20201;-87
2022/03/21 06:43:16;;;;;;;19.20;13.53;;;4.10;56.30;;;;;;5015132;28;20193;-87
2022/03/21 06:45:43;;;;;;;18.20;12.47;;;4.10;55.60;;;;;;5015158;28;20177;-87
2022/03/21 06:48:09;;;;;;;20.03;13.03;;;4.30;55.40;;;;;;5015169;28;20183;-87
2022/03/21 06:50:35;;;;;;;21.97;14.33;;;4.30;55.10;;;;;;5032593;28;20169;-87
2022/03/21 06:53:01;;;;;;;18.43;12.30;;;4.30;55.10;;;;;;5032580;28;20177;-87
2022/03/21 06:55:27;;;;;;;20.57;13.00;;;4.40;55.00;;;;;;5014995;28;20196;-87
2022/03/21 06:57:53;;;;;;;23.23;12.90;;;4.40;55.40;;;;;;5014938;28;20201;-87
2022/03/21 07:00:19;;;;;;;18.80;12.23;;;4.50;55.10;;;;;;5014843;28;20574;-87
2022/03/21 07:02:45;;;;;;;19.27;13.53;;;4.60;54.70;;;;;;5015013;28;20662;-87
2022/03/21 07:05:11;;;;;;;19.00;13.13;;;4.60;54.40;;;;;;5015018;28;20193;-87
2022/03/21 07:07:37;;;;;;;19.87;13.53;;;4.70;54.30;;;;;;5018634;28;20564;-87
2022/03/21 07:10:05;;;;;;;20.50;13.50;;;4.70;53.80;;;;;;5036595;28;20227;-86
2022/03/21 07:12:32;;;;;;;22.93;12.57;;;4.80;54.10;;;;;;5036578;28;20254;-87
2022/03/21 07:14:57;;;;;;;21.33;13.87;;;4.80;53.60;;;;;;5018353;28;20586;-86
2022/03/21 07:17:23;;;;;;;20.37;13.07;;;4.90;53.20;;;;;;5018480;28;20176;-87
2022/03/21 07:19:49;;;;;;;19.10;13.57;;;5.00;52.90;;;;;;5018160;28;20232;-87
2022/03/21 07:22:15;;;;;;;17.97;13.00;;;5.10;52.40;;;;;;5018318;28;20610;-87
2022/03/21 07:24:40;;;;;;;18.33;12.70;;;5.10;52.00;;;;;;5018328;28;20219;-87
2022/03/21 07:27:07;;;;;;;20.27;13.37;;;5.20;52.40;;;;;;5018193;28;20188;-87
2022/03/21 07:29:33;;;;;;;19.03;13.27;;;5.30;52.50;;;;;;5018316;28;20259;-86
2022/03/21 07:31:58;;;;;;;18.03;12.47;;;5.30;51.70;;;;;;5018151;28;20626;-86
2022/03/21 07:34:24;;;;;;;18.03;13.10;;;5.40;51.20;;;;;;5035801;28;20260;-87
2022/03/21 07:36:50;;;;;;;20.40;12.73;;;5.50;51.90;;;;;;5017988;28;20183;-89
2022/03/21 07:39:16;;;;;;;19.50;12.73;;;5.50;51.20;;;;;;5035729;28;20193;-87
2022/03/21 07:41:42;;;;;;;19.23;13.33;;;5.60;51.00;;;;;;5017979;28;20206;-88
2022/03/21 07:44:08;;;;;;;20.00;13.53;;;5.70;51.50;;;;;;5017802;28;20656;-88
2022/03/21 07:49:17;;;;;;;19.10;12.40;;;5.90;51.00;;;;;;5036213;28;20174;-86
2022/03/21 07:51:43;;;;;;;22.07;12.97;;;5.80;49.90;;;;;;5035557;28;20179;-86
2022/03/21 07:54:10;;;;;;;21.03;13.70;;;5.90;50.00;;;;;;5035310;28;20348;-86
2022/03/21 07:56:36;;;;;;;19.63;13.17;;;6.00;49.70;;;;;;5018165;28;20255;-87
2022/03/21 07:59:03;;;;;;;20.47;13.33;;;6.00;49.70;;;;;;5017669;28;20273;-87
2022/03/21 08:01:30;;;;;;;18.13;12.80;;;6.20;50.70;;;;;;5035768;28;20196;-87
2022/03/21 08:03:58;;;;;;;19.97;13.67;;;6.30;49.40;;;;;;5035210;28;20195;-85
2022/03/21 08:06:24;;;;;;;23.00;14.17;;;6.30;48.80;;;;;;5035229;28;20259;-86
2022/03/21 08:08:50;;;;;;;22.57;13.73;;;6.30;49.20;;;;;;5017346;28;20274;-87
2022/03/21 08:11:17;;;;;;;23.03;12.90;;;6.30;48.70;;;;;;5017441;28;20187;-86
2022/03/21 08:13:43;;;;;;;16.87;12.90;;;6.40;48.70;;;;;;5035057;28;20217;-86
2022/03/21 08:16:08;;;;;;;20.23;13.77;;;6.50;48.90;;;;;;5017590;28;20631;-86
2022/03/21 08:18:37;;;;;;;19.73;13.53;;;6.60;49.10;;;;;;5016441;28;20282;-86
2022/03/21 08:21:03;;;;;;;19.87;12.67;;;6.70;48.20;;;;;;5017122;28;20199;-86
2022/03/21 08:23:29;;;;;;;21.57;13.77;;;6.70;48.40;;;;;;5017200;28;20276;-87
2022/03/21 08:25:57;;;;;;;22.30;13.87;;;6.80;49.30;;;;;;5017106;28;20229;-86
2022/03/21 08:28:23;;;;;;;22.77;13.37;;;6.90;49.50;;;;;;5017104;28;20259;-87
2022/03/21 08:30:48;;;;;;;24.40;13.70;;;7.00;48.60;;;;;;5017026;28;20169;-86
2022/03/21 08:33:15;;;;;;;19.63;13.07;;;7.00;48.70;;;;;;5017014;28;20310;-86
2022/03/21 08:35:41;;;;;;;20.30;14.23;;;7.20;48.70;;;;;;5034948;28;20310;-86
2022/03/21 08:38:08;;;;;;;16.20;12.80;;;7.20;47.90;;;;;;5034666;28;20188;-85
2022/03/21 08:40:36;;;;;;;20.77;14.03;;;7.30;47.00;;;;;;5016812;28;20277;-87
2022/03/21 08:43:02;;;;;;;19.83;13.20;;;7.30;47.90;;;;;;5016635;28;20180;-86
2022/03/21 08:45:28;;;;;;;19.83;13.43;;;7.30;47.60;;;;;;5016696;28;20551;-87
2022/03/21 08:47:54;;;;;;;17.53;13.47;;;7.40;47.00;;;;;;5016739;28;20177;-87
2022/03/21 08:50:20;;;;;;;21.77;13.93;;;7.50;47.40;;;;;;5016823;28;20635;-87
2022/03/21 08:52:46;;;;;;;18.47;13.40;;;7.60;47.50;;;;;;5016723;28;20601;-87
2022/03/21 08:55:12;;;;;;;18.40;13.00;;;7.60;47.10;;;;;;5034164;28;20212;-86
2022/03/21 08:57:37;;;;;;;20.03;12.93;;;7.80;48.10;;;;;;5016574;28;20173;-87
2022/03/21 09:00:08;;;;;;;17.50;13.00;;;7.80;47.10;;;;;;5016448;28;20714;-87
2022/03/21 09:02:34;;;;;;;20.97;13.97;;;7.90;47.90;;;;;;5016594;28;20259;-87
2022/03/21 09:05:00;;;;;;;21.03;14.10;;;7.90;46.30;;;;;;5016919;28;20598;-87
2022/03/21 09:07:26;;;;;;;21.43;13.10;;;8.00;46.00;;;;;;5016376;28;20173;-87
2022/03/21 09:09:52;;;;;;;20.93;14.33;;;8.10;46.00;;;;;;5034223;28;20172;-86
2022/03/21 09:12:18;;;;;;;18.63;13.33;;;8.20;45.40;;;;;;5016447;28;20177;-86
2022/03/21 09:14:43;;;;;;;22.80;13.73;;;8.30;46.10;;;;;;5016270;28;20197;-86
2022/03/21 09:17:09;;;;;;;21.43;13.53;;;8.30;47.00;;;;;;5016491;28;20608;-87
2022/03/21 09:19:35;;;;;;;25.87;15.13;;;8.40;44.80;;;;;;5016183;28;20169;-86
2022/03/21 09:22:01;;;;;;;24.07;13.60;;;8.60;45.60;;;;;;5034033;28;20227;-86
2022/03/21 09:24:28;;;;;;;20.97;13.70;;;8.70;44.80;;;;;;5016008;28;20220;-87
2022/03/21 09:26:53;;;;;;;22.37;14.67;;;8.80;45.70;;;;;;5015978;28;20180;-87
2022/03/21 09:29:19;;;;;;;18.97;13.07;;;8.70;45.10;;;;;;5015917;28;20267;-87
2022/03/21 09:31:47;;;;;;;21.37;13.80;;;8.90;45.30;;;;;;5033768;28;20248;-86
2022/03/21 09:34:13;;;;;;;22.17;14.70;;;9.00;45.20;;;;;;5015844;28;20762;-87
2022/03/21 09:36:39;;;;;;;18.60;14.13;;;9.20;44.80;;;;;;5016173;28;20264;-87
2022/03/21 09:39:07;;;;;;;23.37;13.77;;;9.30;44.40;;;;;;5016387;28;20200;-86
2022/03/21 09:41:33;;;;;;;18.70;13.20;;;9.30;43.20;;;;;;5015659;28;20288;-86
2022/03/21 09:44:03;;;;;;;18.53;13.17;;;9.40;43.60;;;;;;5015869;28;20743;-87
2022/03/21 09:46:29;;;;;;;19.20;13.47;;;9.60;43.00;;;;;;5015840;28;20278;-87
2022/03/21 09:48:56;;;;;;;23.27;13.50;;;9.70;43.40;;;;;;5015715;28;20641;-86
2022/03/21 09:51:24;;;;;;;19.67;14.33;;;9.70;42.80;;;;;;5015716;28;20215;-86
2022/03/21 09:53:50;;;;;;;16.73;13.37;;;9.90;44.10;;;;;;5015494;28;20313;-87
2022/03/21 09:56:18;;;;;;;20.77;14.30;;;9.90;43.60;;;;;;5033257;28;20204;-87
2022/03/21 09:58:44;;;;;;;24.63;13.97;;;10.10;42.60;;;;;;5015613;28;20184;-87
2022/03/21 10:01:13;;;;;;;20.93;14.47;;;10.20;41.80;;;;;;5015493;28;20211;-87
2022/03/21 10:03:40;;;;;;;20.20;13.70;;;10.20;41.70;;;;;;5015377;28;20192;-85
2022/03/21 10:06:34;;;;;;;24.27;14.50;;;10.40;42.50;;;;;;5033160;28;20333;-87
2022/03/21 10:09:17;;;;;;;20.67;14.30;;;10.50;41.80;;;;;;5016188;28;20177;-85
2022/03/21 10:11:51;;;;;;;18.57;13.60;;;10.70;41.70;;;;;;5033149;28;20631;-86
2022/03/21 10:14:26;;;;;;;22.97;13.40;;;10.70;42.30;;;;;;5033215;28;20196;-87
2022/03/21 10:17:16;;;;;;;21.33;13.70;;;10.70;43.00;;;;;;5033172;28;20187;-87
2022/03/21 10:19:46;;;;;;;17.80;13.93;;;10.80;43.20;;;;;;5032255;28;20200;-89
2022/03/21 10:22:34;;;;;;;21.33;14.53;;;10.90;42.20;;;;;;5015233;28;20176;-88
2022/03/21 10:25:15;;;;;;;17.17;13.47;;;11.20;43.40;;;;;;5015293;28;20600;-89
2022/03/21 10:27:42;;;;;;;21.67;14.17;;;11.30;41.70;;;;;;5015333;28;20173;-89
2022/03/21 10:30:18;;;;;;;18.93;13.57;;;11.40;41.00;;;;;;5015303;28;20183;-89
2022/03/21 10:32:55;;;;;;;20.50;14.47;;;11.60;40.30;;;;;;5015392;28;20559;-88
2022/03/21 10:35:45;;;;;;;17.97;12.87;;;11.80;40.40;;;;;;5033302;28;20656;-89
2022/03/21 10:38:11;;;;;;;19.10;13.00;;;11.40;40.90;;;;;;5007073;28;20212;-89
2022/03/21 10:40:47;;;;;;;20.20;13.57;;;11.70;40.70;;;;;;5016502;28;20231;-88
2022/03/21 10:43:15;;;;;;;17.80;14.00;;;11.80;39.20;;;;;;5036767;28;20266;-88
2022/03/21 10:45:45;;;;;;;20.40;14.13;;;11.80;38.60;;;;;;5019161;28;20255;-88
2022/03/21 10:48:19;;;;;;;21.87;14.77;;;11.90;39.50;;;;;;5019102;28;20261;-88
2022/03/21 10:50:50;;;;;;;20.57;14.67;;;12.10;39.60;;;;;;5019146;28;20514;-88
2022/03/21 10:53:24;;;;;;;19.03;13.97;;;12.20;38.40;;;;;;5019566;28;20204;-88
2022/03/21 10:56:01;;;;;;;21.37;14.70;;;12.30;39.40;;;;;;5018993;28;20199;-88
2022/03/21 10:58:39;;;;;;;19.67;13.20;;;12.50;39.80;;;;;;5036902;28;20187;-89
2022/03/21 11:01:11;;;;;;;20.77;14.77;;;12.60;39.50;;;;;;5018892;28;20232;-89
2022/03/21 11:03:41;;;;;;;16.77;14.13;;;12.70;38.50;;;;;;5036755;28;20263;-88
2022/03/21 11:06:07;;;;;;;18.13;14.27;;;12.50;39.30;;;;;;5018700;28;20271;-88
2022/03/21 11:08:33;;;;;;;23.43;14.97;;;12.50;39.80;;;;;;5036560;28;20227;-88
2022/03/21 11:10:59;;;;;;;18.07;14.53;;;12.50;39.90;;;;;;5019606;28;20180;-88
2022/03/21 11:13:26;;;;;;;19.47;14.47;;;12.60;39.30;;;;;;5018666;28;20210;-89
2022/03/21 11:15:52;;;;;;;20.23;14.60;;;12.70;38.50;;;;;;5018774;28;20176;-88
2022/03/21 11:18:20;;;;;;;21.37;14.87;;;12.80;39.50;;;;;;5018652;28;20180;-88
2022/03/21 11:20:47;;;;;;;21.33;13.83;;;12.90;39.40;;;;;;5019361;28;20535;-88
2022/03/21 11:23:15;;;;;;;18.83;14.03;;;13.00;37.90;;;;;;5035929;28;20185;-88
2022/03/21 11:25:48;;;;;;;18.73;13.97;;;12.80;38.10;;;;;;5036034;28;20541;-87
2022/03/21 11:28:41;;;;;;;29.57;15.93;;;12.90;37.90;;;;;;5036041;28;20563;-89
2022/03/21 11:31:34;;;;;;;22.67;13.80;;;12.90;36.70;;;;;;5019081;28;20165;-90
2022/03/21 11:34:18;;;;;;;20.17;15.37;;;13.20;39.40;;;;;;5036164;28;20184;-90
2022/03/21 11:36:53;;;;;;;25.00;14.57;;;13.30;36.70;;;;;;5036031;28;20168;-90
2022/03/21 11:39:18;;;;;;;21.30;14.63;;;13.40;38.20;;;;;;5036008;28;20168;-90
2022/03/21 11:41:58;;;;;;;23.00;15.63;;;13.40;38.20;;;;;;5017926;28;20201;-90
2022/03/21 11:44:23;;;;;;;18.03;15.10;;;13.60;37.40;;;;;;5035496;28;20195;-90
2022/03/21 11:46:49;;;;;;;25.63;14.50;;;13.50;36.90;;;;;;5035640;28;20165;-90
2022/03/21 11:49:17;;;;;;;19.30;14.57;;;13.60;36.90;;;;;;5018173;28;20642;-89
2022/03/21 11:51:44;;;;;;;23.63;14.33;;;13.60;37.70;;;;;;5017005;28;20322;-90
2022/03/21 11:54:29;;;;;;;20.87;14.57;;;13.80;37.00;;;;;;5035067;28;20219;-90
2022/03/21 11:56:58;;;;;;;22.90;14.73;;;13.80;37.50;;;;;;5035622;28;20248;-91
2022/03/21 11:59:33;;;;;;;20.20;15.20;;;14.10;36.50;;;;;;5035670;28;20181;-90
2022/03/21 12:02:03;;;;;;;19.00;15.07;;;14.10;37.80;;;;;;5035807;28;20203;-90
2022/03/21 12:04:30;;;;;;;23.37;15.23;;;14.10;38.80;;;;;;5035144;28;20200;-90
2022/03/21 12:07:20;;;;;;;24.87;15.43;;;14.30;35.90;;;;;;5035157;28;20192;-90
2022/03/21 12:09:53;;;;;;;19.20;14.23;;;14.20;37.30;;;;;;5035186;28;20181;-90
2022/03/21 12:12:20;;;;;;;18.60;13.40;;;14.20;37.90;;;;;;5035496;28;20261;-90
2022/03/21 12:14:56;;;;;;;20.43;14.93;;;14.30;36.10;;;;;;5035043;28;20221;-89
2022/03/21 12:17:21;;;;;;;18.73;15.03;;;14.10;37.50;;;;;;5018324;28;20215;-89
2022/03/21 12:20:02;;;;;;;22.57;15.30;;;14.20;37.80;;;;;;5017333;28;20177;-90
2022/03/21 12:22:28;;;;;;;25.33;15.17;;;14.20;35.90;;;;;;5035188;28;20153;-90
2022/03/21 12:24:54;;;;;;;18.43;15.17;;;14.20;37.30;;;;;;5034937;28;20193;-90
2022/03/21 12:27:44;;;;;;;23.17;14.67;;;14.20;37.70;;;;;;5034829;28;20169;-89
2022/03/21 12:30:27;;;;;;;23.07;15.07;;;14.30;35.20;;;;;;5017230;28;20168;-91
2022/03/21 12:33:12;;;;;;;24.37;14.17;;;14.50;37.00;;;;;;5035117;28;20245;-90
2022/03/21 12:35:45;;;;;;;18.87;15.13;;;14.40;36.30;;;;;;5035164;28;20157;-90
2022/03/21 12:38:22;;;;;;;18.20;15.13;;;14.40;34.60;;;;;;5016985;28;20175;-90
2022/03/21 12:40:49;;;;;;;20.33;14.90;;;14.60;36.50;;;;;;5016729;28;20200;-89
2022/03/21 12:43:20;;;;;;;17.67;14.43;;;14.60;35.70;;;;;;5017796;28;20247;-89
2022/03/21 12:45:47;;;;;;;21.43;15.63;;;14.40;35.90;;;;;;5034915;28;20161;-89
2022/03/21 12:48:17;;;;;;;18.07;14.90;;;14.40;36.30;;;;;;5034515;28;20173;-89
2022/03/21 12:50:46;;;;;;;22.57;14.97;;;14.40;36.90;;;;;;5034572;28;20153;-89
2022/03/21 12:53:15;;;;;;;18.30;15.30;;;14.60;36.80;;;;;;5034293;28;20211;-89
2022/03/21 12:55:41;;;;;;;20.03;15.13;;;14.80;35.90;;;;;;5034721;28;20171;-90
2022/03/21 12:58:12;;;;;;;22.37;17.07;;;14.80;35.60;;;;;;5016628;28;20176;-89
2022/03/21 13:00:40;;;;;;;18.53;15.40;;;14.60;35.90;;;;;;5016533;28;20208;-89
2022/03/21 13:03:11;;;;;;;21.43;15.77;;;14.80;34.90;;;;;;5016396;28;20168;-89